createdAt,value
2018-05-25T00:02:32.491Z,11.95
2018-05-25T00:08:27.521Z,11.91
2018-05-25T00:14:22.493Z,11.32
2018-05-25T00:20:17.529Z,10.31
2018-05-25T00:26:12.509Z,11.54
2018-05-25T00:32:07.481Z,12.64
2018-05-25T00:38:02.833Z,11.72
2018-05-25T00:43:57.531Z,13.81
2018-05-25T00:49:52.500Z,12.64
2018-05-25T00:55:47.538Z,14.42
2018-05-25T01:01:42.531Z,13.36
2018-05-25T01:07:37.583Z,13.44
2018-05-25T01:13:32.498Z,13.72
2018-05-25T01:19:27.540Z,13.78
2018-05-25T01:25:22.540Z,14.37
2018-05-25T01:31:17.568Z,15.22
2018-05-25T01:37:12.526Z,15.24
2018-05-25T01:43:07.542Z,15.17
2018-05-25T01:49:02.595Z,15.73
2018-05-25T01:54:57.547Z,17.02
2018-05-25T02:00:52.581Z,16.3
2018-05-25T02:06:47.535Z,16.08
2018-05-25T02:12:42.533Z,16.5
2018-05-25T02:18:37.546Z,16.8
2018-05-25T02:24:32.552Z,18.33
2018-05-25T02:30:27.540Z,17.17
2018-05-25T02:36:22.554Z,16.37
2018-05-25T02:42:17.590Z,17.47
2018-05-25T02:48:12.567Z,17.02
2018-05-25T02:54:07.575Z,17.14
2018-05-25T03:00:03.281Z,17.06
2018-05-25T03:05:57.604Z,15.78
2018-05-25T03:11:52.614Z,14.76
2018-05-25T03:17:47.600Z,16.1
2018-05-25T03:23:42.571Z,15.77
2018-05-25T03:29:37.656Z,15.44
2018-05-25T03:35:32.597Z,14.32
2018-05-25T03:41:27.626Z,14.77
2018-05-25T03:47:22.600Z,16.86
2018-05-25T03:53:17.599Z,16.5
2018-05-25T03:59:12.619Z,16.07
2018-05-25T04:05:07.614Z,15.57
2018-05-25T04:11:02.697Z,18.14
2018-05-25T04:16:57.602Z,17.85
2018-05-25T04:22:52.619Z,17.72
2018-05-25T04:28:47.662Z,14.77
2018-05-25T04:34:42.643Z,15.82
2018-05-25T04:40:37.630Z,14.88
2018-05-25T04:46:32.644Z,14.95
2018-05-25T04:52:27.682Z,15.09
2018-05-25T04:58:22.692Z,13.28
2018-05-25T05:04:17.672Z,8.13
2018-05-25T05:10:12.647Z,12.14
2018-05-25T05:16:07.633Z,16.79
2018-05-25T05:22:02.662Z,14.97
2018-05-25T05:27:57.672Z,15.08
2018-05-25T05:33:52.702Z,16.35
2018-05-25T05:39:47.687Z,16.47
2018-05-25T05:45:42.698Z,17.63
2018-05-25T05:51:37.721Z,17.04
2018-05-25T05:57:32.718Z,17.93
2018-05-25T06:03:27.675Z,18
2018-05-25T06:09:22.695Z,17.5
2018-05-25T06:15:17.678Z,18.77
2018-05-25T06:21:12.679Z,19.73
2018-05-25T06:27:07.662Z,20.46
2018-05-25T06:33:02.684Z,21.4
2018-05-25T06:38:57.721Z,20.87
2018-05-25T06:44:52.736Z,19.3
2018-05-25T06:50:47.745Z,25.49
2018-05-25T06:56:42.715Z,25.31
2018-05-25T07:02:37.739Z,24.45
2018-05-25T07:08:32.713Z,24.85
2018-05-25T07:14:27.740Z,20.74
2018-05-25T07:20:22.782Z,22.4
2018-05-25T07:26:17.733Z,23.68
2018-05-25T07:32:12.731Z,24.97
2018-05-25T07:38:07.801Z,24.64
2018-05-25T07:44:02.748Z,28.13
2018-05-25T07:49:57.724Z,29.02
2018-05-25T07:55:52.739Z,25.24
2018-05-25T08:01:47.756Z,25.8
2018-05-25T08:07:42.728Z,27.52
2018-05-25T08:13:37.757Z,24.45
2018-05-25T08:19:32.751Z,25.02
2018-05-25T08:25:27.751Z,19.63
2018-05-25T08:31:22.752Z,21.01
2018-05-25T08:37:17.784Z,21.32
2018-05-25T08:43:12.844Z,21.17
2018-05-25T08:49:07.771Z,19.97
2018-05-25T08:55:02.844Z,27.2
2018-05-25T09:00:57.827Z,21.38
2018-05-25T09:06:52.793Z,21.43
2018-05-25T09:12:47.779Z,21.33
2018-05-25T09:18:42.791Z,21.51
2018-05-25T09:24:37.784Z,25.58
2018-05-25T09:30:32.831Z,23.4
2018-05-25T09:36:27.809Z,24.58
2018-05-25T09:42:22.811Z,26.9
2018-05-25T09:48:17.837Z,19.98
2018-05-25T09:54:12.808Z,22.18
2018-05-25T10:00:07.799Z,27.59
2018-05-25T10:06:02.841Z,29.13
2018-05-25T10:11:57.880Z,25.42
2018-05-25T10:17:52.846Z,21.65
2018-05-25T10:23:47.884Z,20.99
2018-05-25T10:29:42.832Z,24.26
2018-05-25T10:35:37.822Z,21.82
2018-05-25T10:41:32.838Z,25.69
2018-05-25T10:47:27.833Z,23.22
2018-05-25T10:53:22.892Z,22.98
2018-05-25T10:59:17.847Z,21.59
2018-05-25T11:05:12.829Z,20.99
2018-05-25T11:11:07.831Z,21.86
2018-05-25T11:17:02.848Z,21.07
2018-05-25T11:22:57.891Z,19.58
2018-05-25T11:28:52.864Z,20.18
2018-05-25T11:34:47.894Z,18.2
2018-05-25T11:40:42.905Z,20.6
2018-05-25T11:46:37.878Z,19.91
2018-05-25T11:52:32.871Z,18.37
2018-05-25T11:58:27.887Z,18.02
2018-05-25T12:04:22.874Z,19.32
2018-05-25T12:10:17.889Z,17.73
2018-05-25T12:16:12.904Z,17.41
2018-05-25T12:22:07.945Z,17.55
2018-05-25T12:28:02.906Z,17.92
2018-05-25T12:33:57.899Z,16.85
2018-05-25T12:39:52.965Z,16.45
2018-05-25T12:45:47.882Z,16.14
2018-05-25T12:51:42.899Z,14.16
2018-05-25T12:57:37.891Z,14.84
2018-05-25T13:03:32.922Z,14.08
2018-05-25T13:09:27.925Z,13.73
2018-05-25T13:15:22.910Z,13.17
2018-05-25T13:21:17.933Z,13.37
2018-05-25T13:27:12.950Z,13.74
2018-05-25T13:33:07.921Z,11.95
2018-05-25T13:39:02.929Z,12.78
2018-05-25T13:44:57.914Z,11.34
2018-05-25T13:50:52.952Z,11.43
2018-05-25T13:56:47.926Z,10.71
2018-05-25T14:02:43.274Z,10.33
2018-05-25T14:08:37.978Z,10.73
2018-05-25T14:14:32.978Z,10.24
2018-05-25T14:20:27.967Z,9.48
2018-05-25T14:26:22.967Z,9.81
2018-05-25T14:32:17.943Z,9.34
2018-05-25T14:38:12.969Z,9.01
2018-05-25T14:44:07.999Z,9.82
2018-05-25T14:50:03.163Z,8.27
2018-05-25T14:55:58.006Z,9.38
2018-05-25T15:01:52.981Z,8.33
2018-05-25T15:07:47.994Z,8.36
2018-05-25T15:13:42.963Z,8.06
2018-05-25T15:19:37.991Z,8.18
2018-05-25T15:25:33.006Z,8.22
2018-05-25T15:31:27.975Z,8.1
2018-05-25T15:37:22.990Z,8.38
2018-05-25T15:43:18.005Z,9.16
2018-05-25T15:49:13.044Z,9.95
2018-05-25T15:55:08.011Z,9.98
2018-05-25T16:01:03.007Z,8.82
2018-05-25T16:06:58.033Z,10.64
2018-05-25T16:12:53.000Z,11.28
2018-05-25T16:18:48.029Z,9.28
2018-05-25T16:24:43.013Z,8.42
2018-05-25T16:30:38.024Z,9.43
2018-05-25T16:36:33.082Z,9.07
2018-05-25T16:42:28.031Z,8.68
2018-05-25T16:48:23.026Z,9.34
2018-05-25T16:54:18.045Z,8.07
2018-05-25T17:00:13.026Z,7.62
2018-05-25T17:06:08.083Z,7.76
2018-05-25T17:12:03.060Z,8.41
2018-05-25T17:17:58.066Z,8.2
2018-05-25T17:23:53.043Z,7.74
2018-05-25T17:29:48.070Z,8.05
2018-05-25T17:35:43.069Z,7.84
2018-05-25T17:41:38.077Z,8
2018-05-25T17:47:33.091Z,9.48
2018-05-25T17:53:28.063Z,8.67
2018-05-25T17:59:23.057Z,12.93
2018-05-25T18:05:18.114Z,11.81
2018-05-25T18:11:13.087Z,12.52
2018-05-25T18:17:08.131Z,13
2018-05-25T18:23:03.183Z,17.88
2018-05-25T18:28:58.105Z,11.52
2018-05-25T18:34:53.104Z,8.71
2018-05-25T18:46:43.103Z,9.08
2018-05-25T18:52:38.096Z,9.62
2018-05-25T18:58:33.140Z,8.97
2018-05-25T19:04:28.110Z,8.07
2018-05-25T19:10:23.134Z,8.81
2018-05-25T19:16:18.099Z,7.67
2018-05-25T19:22:13.113Z,8.07
2018-05-25T19:28:08.112Z,8.38
2018-05-25T19:34:03.128Z,8.29
2018-05-25T19:39:58.159Z,8.2
2018-05-25T19:45:53.258Z,8.23
2018-05-25T19:51:48.153Z,7.88
2018-05-25T19:57:43.248Z,8.27
2018-05-25T20:03:38.141Z,8.36
2018-05-25T20:09:33.762Z,8.87
2018-05-25T20:15:28.207Z,7.98
2018-05-25T20:21:23.165Z,8.66
2018-05-25T20:27:18.145Z,8.09
2018-05-25T20:33:13.143Z,9.35
2018-05-25T20:39:08.149Z,9.41
2018-05-25T20:45:03.164Z,8.39
2018-05-25T20:50:58.222Z,8.93
2018-05-25T20:56:53.228Z,8.75
2018-05-25T21:02:48.182Z,8.93
2018-05-25T21:08:43.168Z,8.96
2018-05-25T21:14:38.201Z,8.41
2018-05-25T21:20:33.884Z,8.62
2018-05-25T21:26:28.220Z,8.98
2018-05-25T21:32:23.189Z,8.92
2018-05-25T21:38:18.227Z,7.79
2018-05-25T21:44:13.261Z,8.64
2018-05-25T21:50:08.231Z,9.06
2018-05-25T21:56:03.226Z,8.64
2018-05-25T22:01:58.196Z,8.54
2018-05-25T22:07:53.225Z,8.43
2018-05-25T22:13:48.200Z,7.61
2018-05-25T22:19:43.205Z,8.46
2018-05-25T22:25:38.256Z,7.79
2018-05-25T22:31:33.236Z,7.6
2018-05-25T22:37:28.283Z,7.79
2018-05-25T22:43:23.212Z,8.76
2018-05-25T22:49:18.236Z,8.8
2018-05-25T22:55:13.241Z,8.77
2018-05-25T23:01:08.262Z,9.03
2018-05-25T23:07:03.239Z,8.5
2018-05-25T23:12:58.251Z,9.43
2018-05-25T23:18:53.250Z,9.46
2018-05-25T23:24:48.264Z,9.59
2018-05-25T23:30:43.304Z,9.2
2018-05-25T23:36:38.260Z,9.21
2018-05-25T23:42:33.240Z,10.02
2018-05-25T23:48:28.312Z,10
2018-05-25T23:54:23.269Z,9.75
